Pardeeville, Wisconsin
Current Conditions -  °F | °C
As of 7:35 AM on Saturday 25 Oct 2014 (Local Time) from KDLL Reporting Station
Clear Clear  
Wind Chill: 51°   Ceiling: Unl
Heat Index: 51°   Visibility: 10mi
Dew Point: 45°   Wind: 5mph
Humidity: 81%   Direction: 260°W
Pressure: 29.92"   Gusts: NA
Location:  43.54°N, 89.3°W
Report Text: KDLL 251235Z AUTO 26004KT 10SM CLR 11/07 A2992 RMK AO2 T01050074
Loading
Personal Weather Stations






























Interactive Weather Map
Tropical Storm Tracking
New forecast layout! Learn more

10-Day Weather Forecast

Advertisements
Track Severe Weather on mobile